sensor_id;sensor_type;location;lat;lon;timestamp;temperature;humidity
47090;DHT22;32840;52.516;13.294;2024-01-30T00:01:39;5.90;98.00
47090;DHT22;32840;52.516;13.294;2024-01-30T00:04:24;5.90;98.10
47090;DHT22;32840;52.516;13.294;2024-01-30T00:07:09;5.90;98.10
47090;DHT22;32840;52.516;13.294;2024-01-30T00:09:54;5.90;98.60
47090;DHT22;32840;52.516;13.294;2024-01-30T00:12:39;5.90;98.30
47090;DHT22;32840;52.516;13.294;2024-01-30T00:15:24;5.80;98.40
47090;DHT22;32840;52.516;13.294;2024-01-30T00:18:09;5.80;98.40
47090;DHT22;32840;52.516;13.294;2024-01-30T00:20:54;5.80;98.60
47090;DHT22;32840;52.516;13.294;2024-01-30T00:23:39;5.70;98.60
47090;DHT22;32840;52.516;13.294;2024-01-30T00:26:24;5.70;98.80
47090;DHT22;32840;52.516;13.294;2024-01-30T00:29:09;5.70;98.90
47090;DHT22;32840;52.516;13.294;2024-01-30T00:31:54;5.60;99.00
47090;DHT22;32840;52.516;13.294;2024-01-30T00:34:39;5.60;99.10
47090;DHT22;32840;52.516;13.294;2024-01-30T00:37:23;5.60;99.30
47090;DHT22;32840;52.516;13.294;2024-01-30T00:40:09;5.60;99.40
47090;DHT22;32840;52.516;13.294;2024-01-30T00:43:00;5.60;99.50
47090;DHT22;32840;52.516;13.294;2024-01-30T00:45:45;5.60;99.60
47090;DHT22;32840;52.516;13.294;2024-01-30T00:48:30;5.60;99.60
47090;DHT22;32840;52.516;13.294;2024-01-30T00:51:15;5.60;99.60
47090;DHT22;32840;52.516;13.294;2024-01-30T00:54:00;5.60;99.80
47090;DHT22;32840;52.516;13.294;2024-01-30T00:56:44;5.60;99.80
47090;DHT22;32840;52.516;13.294;2024-01-30T00:59:29;5.60;99.90
47090;DHT22;32840;52.516;13.294;2024-01-30T01:02:14;5.60;99.90
47090;DHT22;32840;52.516;13.294;2024-01-30T01:05:02;5.60;99.90
47090;DHT22;32840;52.516;13.294;2024-01-30T01:07:47;5.50;99.90
47090;DHT22;32840;52.516;13.294;2024-01-30T01:10:34;5.50;99.90
47090;DHT22;32840;52.516;13.294;2024-01-30T01:13:19;5.50;99.90
47090;DHT22;32840;52.516;13.294;2024-01-30T01:16:05;5.50;99.90
47090;DHT22;32840;52.516;13.294;2024-01-30T01:18:49;5.50;99.90
47090;DHT22;32840;52.516;13.294;2024-01-30T01:21:34;5.50;99.90
47090;DHT22;32840;52.516;13.294;2024-01-30T01:24:19;5.60;99.90
47090;DHT22;32840;52.516;13.294;2024-01-30T01:27:05;5.60;99.90
47090;DHT22;32840;52.516;13.294;2024-01-30T01:29:50;5.50;99.90
47090;DHT22;32840;52.516;13.294;2024-01-30T01:32:35;5.50;99.90
47090;DHT22;32840;52.516;13.294;2024-01-30T01:35:22;5.50;99.90
47090;DHT22;32840;52.516;13.294;2024-01-30T01:38:09;5.50;99.90
47090;DHT22;32840;52.516;13.294;2024-01-30T01:40:54;5.50;99.90
47090;DHT22;32840;52.516;13.294;2024-01-30T01:43:39;5.40;99.90
47090;DHT22;32840;52.516;13.294;2024-01-30T01:46:26;5.50;99.90
47090;DHT22;32840;52.516;13.294;2024-01-30T01:49:12;5.50;99.90
47090;DHT22;32840;52.516;13.294;2024-01-30T01:51:58;5.40;99.90
47090;DHT22;32840;52.516;13.294;2024-01-30T01:54:43;5.50;99.90
47090;DHT22;32840;52.516;13.294;2024-01-30T01:57:28;5.40;99.90
47090;DHT22;32840;52.516;13.294;2024-01-30T02:00:13;5.40;99.90
47090;DHT22;32840;52.516;13.294;2024-01-30T02:02:58;5.40;99.90
47090;DHT22;32840;52.516;13.294;2024-01-30T02:05:44;5.40;99.90
47090;DHT22;32840;52.516;13.294;2024-01-30T02:08:29;5.30;99.90
47090;DHT22;32840;52.516;13.294;2024-01-30T02:11:14;5.30;99.90
47090;DHT22;32840;52.516;13.294;2024-01-30T02:14:03;5.40;99.90
47090;DHT22;32840;52.516;13.294;2024-01-30T02:16:48;5.30;99.90
47090;DHT22;32840;52.516;13.294;2024-01-30T02:19:33;5.20;99.90
47090;DHT22;32840;52.516;13.294;2024-01-30T02:22:18;5.30;99.90
47090;DHT22;32840;52.516;13.294;2024-01-30T02:25:04;5.20;99.90
47090;DHT22;32840;52.516;13.294;2024-01-30T02:27:49;5.30;99.90
47090;DHT22;32840;52.516;13.294;2024-01-30T02:30:34;5.30;99.90
47090;DHT22;32840;52.516;13.294;2024-01-30T02:33:19;5.40;99.90
47090;DHT22;32840;52.516;13.294;2024-01-30T02:36:04;5.30;99.90
47090;DHT22;32840;52.516;13.294;2024-01-30T02:38:49;5.30;99.90
47090;DHT22;32840;52.516;13.294;2024-01-30T02:41:34;5.40;99.90
47090;DHT22;32840;52.516;13.294;2024-01-30T02:44:19;5.40;99.90
47090;DHT22;32840;52.516;13.294;2024-01-30T02:47:04;5.40;99.90
47090;DHT22;32840;52.516;13.294;2024-01-30T02:49:49;5.30;99.90
47090;DHT22;32840;52.516;13.294;2024-01-30T02:52:34;5.40;99.90
47090;DHT22;32840;52.516;13.294;2024-01-30T02:55:19;5.40;99.90
47090;DHT22;32840;52.516;13.294;2024-01-30T02:58:04;5.50;99.90
47090;DHT22;32840;52.516;13.294;2024-01-30T03:00:49;5.40;99.90
47090;DHT22;32840;52.516;13.294;2024-01-30T03:03:34;5.30;99.90
47090;DHT22;32840;52.516;13.294;2024-01-30T03:06:20;5.30;99.90
47090;DHT22;32840;52.516;13.294;2024-01-30T03:09:06;5.30;99.90
47090;DHT22;32840;52.516;13.294;2024-01-30T03:11:51;5.20;99.90
47090;DHT22;32840;52.516;13.294;2024-01-30T03:14:36;5.20;99.90
47090;DHT22;32840;52.516;13.294;2024-01-30T03:17:21;5.10;99.90
47090;DHT22;32840;52.516;13.294;2024-01-30T03:20:06;5.10;99.90
47090;DHT22;32840;52.516;13.294;2024-01-30T03:22:51;5.10;99.90
47090;DHT22;32840;52.516;13.294;2024-01-30T03:25:36;5.10;99.90
47090;DHT22;32840;52.516;13.294;2024-01-30T03:28:21;5.10;99.90
47090;DHT22;32840;52.516;13.294;2024-01-30T03:31:06;5.00;99.90
47090;DHT22;32840;52.516;13.294;2024-01-30T03:33:51;5.00;99.90
47090;DHT22;32840;52.516;13.294;2024-01-30T03:36:36;5.00;99.90
47090;DHT22;32840;52.516;13.294;2024-01-30T03:39:21;5.00;99.90
47090;DHT22;32840;52.516;13.294;2024-01-30T03:42:06;5.00;99.90
47090;DHT22;32840;52.516;13.294;2024-01-30T03:44:51;4.90;99.90
47090;DHT22;32840;52.516;13.294;2024-01-30T03:47:38;4.90;99.90
47090;DHT22;32840;52.516;13.294;2024-01-30T03:50:22;4.90;99.90
47090;DHT22;32840;52.516;13.294;2024-01-30T03:53:07;4.90;99.90
47090;DHT22;32840;52.516;13.294;2024-01-30T03:55:52;5.00;99.90
47090;DHT22;32840;52.516;13.294;2024-01-30T03:58:37;5.00;99.90
47090;DHT22;32840;52.516;13.294;2024-01-30T04:01:22;5.00;99.90
47090;DHT22;32840;52.516;13.294;2024-01-30T04:04:07;5.00;99.90
47090;DHT22;32840;52.516;13.294;2024-01-30T04:06:53;4.90;99.90
47090;DHT22;32840;52.516;13.294;2024-01-30T04:09:38;4.90;99.90
47090;DHT22;32840;52.516;13.294;2024-01-30T04:12:23;5.00;99.90
47090;DHT22;32840;52.516;13.294;2024-01-30T04:15:08;4.90;99.90
47090;DHT22;32840;52.516;13.294;2024-01-30T04:17:53;5.00;99.90
47090;DHT22;32840;52.516;13.294;2024-01-30T04:20:38;5.00;99.90
47090;DHT22;32840;52.516;13.294;2024-01-30T04:23:23;5.00;99.90
47090;DHT22;32840;52.516;13.294;2024-01-30T04:26:08;4.90;99.90
47090;DHT22;32840;52.516;13.294;2024-01-30T04:28:53;4.90;99.90
47090;DHT22;32840;52.516;13.294;2024-01-30T04:31:38;4.90;99.90
47090;DHT22;32840;52.516;13.294;2024-01-30T04:34:23;4.90;99.90
47090;DHT22;32840;52.516;13.294;2024-01-30T04:37:07;4.90;99.90
47090;DHT22;32840;52.516;13.294;2024-01-30T04:39:52;4.90;99.90
47090;DHT22;32840;52.516;13.294;2024-01-30T04:42:37;4.90;99.90
47090;DHT22;32840;52.516;13.294;2024-01-30T04:45:22;4.90;99.90
47090;DHT22;32840;52.516;13.294;2024-01-30T04:48:07;5.00;99.90
47090;DHT22;32840;52.516;13.294;2024-01-30T04:50:52;4.90;99.90
47090;DHT22;32840;52.516;13.294;2024-01-30T04:53:37;4.90;99.90
47090;DHT22;32840;52.516;13.294;2024-01-30T04:56:23;4.90;99.90
47090;DHT22;32840;52.516;13.294;2024-01-30T04:59:08;4.90;99.90
47090;DHT22;32840;52.516;13.294;2024-01-30T05:01:53;4.90;99.90
47090;DHT22;32840;52.516;13.294;2024-01-30T05:04:38;4.80;99.90
47090;DHT22;32840;52.516;13.294;2024-01-30T05:07:25;4.90;99.90
47090;DHT22;32840;52.516;13.294;2024-01-30T05:10:10;4.80;99.90
47090;DHT22;32840;52.516;13.294;2024-01-30T05:12:56;4.80;99.90
47090;DHT22;32840;52.516;13.294;2024-01-30T05:15:40;4.80;99.90
47090;DHT22;32840;52.516;13.294;2024-01-30T05:18:25;4.80;99.90
47090;DHT22;32840;52.516;13.294;2024-01-30T05:21:10;4.80;99.90
47090;DHT22;32840;52.516;13.294;2024-01-30T05:23:55;4.80;99.90
47090;DHT22;32840;52.516;13.294;2024-01-30T05:26:40;4.70;99.90
47090;DHT22;32840;52.516;13.294;2024-01-30T05:29:26;4.80;99.90
47090;DHT22;32840;52.516;13.294;2024-01-30T05:32:11;4.90;99.90
47090;DHT22;32840;52.516;13.294;2024-01-30T05:34:56;4.80;99.90
47090;DHT22;32840;52.516;13.294;2024-01-30T05:37:41;4.80;99.90
47090;DHT22;32840;52.516;13.294;2024-01-30T05:40:26;4.80;99.90
47090;DHT22;32840;52.516;13.294;2024-01-30T05:43:12;4.70;99.90
47090;DHT22;32840;52.516;13.294;2024-01-30T05:45:56;4.80;99.90
47090;DHT22;32840;52.516;13.294;2024-01-30T05:48:41;4.70;99.90
47090;DHT22;32840;52.516;13.294;2024-01-30T05:51:26;4.70;99.90
47090;DHT22;32840;52.516;13.294;2024-01-30T05:54:12;4.80;99.90
47090;DHT22;32840;52.516;13.294;2024-01-30T05:56:57;4.70;99.90
47090;DHT22;32840;52.516;13.294;2024-01-30T05:59:42;4.70;99.90
47090;DHT22;32840;52.516;13.294;2024-01-30T06:02:28;4.70;99.90
47090;DHT22;32840;52.516;13.294;2024-01-30T06:05:13;4.70;99.90
47090;DHT22;32840;52.516;13.294;2024-01-30T06:07:58;4.70;99.90
47090;DHT22;32840;52.516;13.294;2024-01-30T06:10:43;4.70;99.90
47090;DHT22;32840;52.516;13.294;2024-01-30T06:13:28;4.70;99.90
47090;DHT22;32840;52.516;13.294;2024-01-30T06:16:15;4.70;99.90
47090;DHT22;32840;52.516;13.294;2024-01-30T06:19:00;4.70;99.90
47090;DHT22;32840;52.516;13.294;2024-01-30T06:21:45;4.80;99.90
47090;DHT22;32840;52.516;13.294;2024-01-30T06:24:30;4.80;99.90
47090;DHT22;32840;52.516;13.294;2024-01-30T06:27:15;4.90;99.90
47090;DHT22;32840;52.516;13.294;2024-01-30T06:30:01;4.80;99.90
47090;DHT22;32840;52.516;13.294;2024-01-30T06:32:46;4.80;99.90
47090;DHT22;32840;52.516;13.294;2024-01-30T06:35:31;4.90;99.90
47090;DHT22;32840;52.516;13.294;2024-01-30T06:38:21;4.90;99.90
47090;DHT22;32840;52.516;13.294;2024-01-30T06:41:05;4.90;99.90
47090;DHT22;32840;52.516;13.294;2024-01-30T06:43:50;4.90;99.90
47090;DHT22;32840;52.516;13.294;2024-01-30T06:46:35;4.90;99.90
47090;DHT22;32840;52.516;13.294;2024-01-30T06:49:20;4.90;99.90
47090;DHT22;32840;52.516;13.294;2024-01-30T06:52:06;4.90;99.90
47090;DHT22;32840;52.516;13.294;2024-01-30T06:54:52;4.90;99.90
47090;DHT22;32840;52.516;13.294;2024-01-30T06:57:38;4.90;99.90
47090;DHT22;32840;52.516;13.294;2024-01-30T07:00:23;5.00;99.90
47090;DHT22;32840;52.516;13.294;2024-01-30T07:03:07;5.00;99.90
47090;DHT22;32840;52.516;13.294;2024-01-30T07:05:53;5.00;99.90
47090;DHT22;32840;52.516;13.294;2024-01-30T07:08:37;5.00;99.90
47090;DHT22;32840;52.516;13.294;2024-01-30T07:11:24;5.00;99.90
47090;DHT22;32840;52.516;13.294;2024-01-30T07:14:09;5.00;99.90
47090;DHT22;32840;52.516;13.294;2024-01-30T07:16:54;5.00;99.90
47090;DHT22;32840;52.516;13.294;2024-01-30T07:19:39;5.10;99.90
47090;DHT22;32840;52.516;13.294;2024-01-30T07:22:24;5.10;99.90
47090;DHT22;32840;52.516;13.294;2024-01-30T07:25:09;5.10;99.90
47090;DHT22;32840;52.516;13.294;2024-01-30T07:27:54;5.20;99.90
47090;DHT22;32840;52.516;13.294;2024-01-30T07:30:39;5.20;99.90
47090;DHT22;32840;52.516;13.294;2024-01-30T07:33:24;5.30;99.90
47090;DHT22;32840;52.516;13.294;2024-01-30T07:36:09;5.30;99.90
47090;DHT22;32840;52.516;13.294;2024-01-30T07:38:55;5.40;99.90
47090;DHT22;32840;52.516;13.294;2024-01-30T07:41:39;5.40;99.90
47090;DHT22;32840;52.516;13.294;2024-01-30T07:44:24;5.50;99.90
47090;DHT22;32840;52.516;13.294;2024-01-30T07:47:09;5.50;99.90
47090;DHT22;32840;52.516;13.294;2024-01-30T07:49:54;5.50;99.90
47090;DHT22;32840;52.516;13.294;2024-01-30T07:52:39;5.60;99.90
47090;DHT22;32840;52.516;13.294;2024-01-30T07:55:24;5.60;99.90
47090;DHT22;32840;52.516;13.294;2024-01-30T07:58:12;5.60;99.90
47090;DHT22;32840;52.516;13.294;2024-01-30T08:00:57;5.50;99.90
47090;DHT22;32840;52.516;13.294;2024-01-30T08:03:42;5.50;99.90
47090;DHT22;32840;52.516;13.294;2024-01-30T08:06:27;5.60;99.90
47090;DHT22;32840;52.516;13.294;2024-01-30T08:09:12;5.60;99.90
47090;DHT22;32840;52.516;13.294;2024-01-30T08:11:57;5.60;99.90
47090;DHT22;32840;52.516;13.294;2024-01-30T08:14:42;5.60;99.90
47090;DHT22;32840;52.516;13.294;2024-01-30T08:17:27;5.60;99.90
47090;DHT22;32840;52.516;13.294;2024-01-30T08:20:12;5.70;99.90
47090;DHT22;32840;52.516;13.294;2024-01-30T08:22:58;5.70;99.90
47090;DHT22;32840;52.516;13.294;2024-01-30T08:25:45;5.70;99.90
47090;DHT22;32840;52.516;13.294;2024-01-30T08:28:30;5.80;99.90
47090;DHT22;32840;52.516;13.294;2024-01-30T08:31:15;5.80;99.90
47090;DHT22;32840;52.516;13.294;2024-01-30T08:33:59;5.80;99.90
47090;DHT22;32840;52.516;13.294;2024-01-30T08:36:44;5.90;99.90
47090;DHT22;32840;52.516;13.294;2024-01-30T08:39:29;5.90;99.90
47090;DHT22;32840;52.516;13.294;2024-01-30T08:42:15;6.00;99.90
47090;DHT22;32840;52.516;13.294;2024-01-30T08:45:04;6.00;99.90
47090;DHT22;32840;52.516;13.294;2024-01-30T08:47:49;6.10;99.90
47090;DHT22;32840;52.516;13.294;2024-01-30T08:50:34;6.10;99.90
47090;DHT22;32840;52.516;13.294;2024-01-30T08:53:19;6.10;99.90
47090;DHT22;32840;52.516;13.294;2024-01-30T08:56:05;6.20;99.90
47090;DHT22;32840;52.516;13.294;2024-01-30T08:58:50;6.30;99.90
47090;DHT22;32840;52.516;13.294;2024-01-30T09:01:35;6.40;99.90
47090;DHT22;32840;52.516;13.294;2024-01-30T09:04:21;6.50;99.90
47090;DHT22;32840;52.516;13.294;2024-01-30T09:07:06;6.50;99.90
47090;DHT22;32840;52.516;13.294;2024-01-30T09:09:53;6.60;99.90
47090;DHT22;32840;52.516;13.294;2024-01-30T09:12:38;6.70;99.90
47090;DHT22;32840;52.516;13.294;2024-01-30T09:15:23;6.80;99.90
47090;DHT22;32840;52.516;13.294;2024-01-30T09:18:09;6.80;99.90
47090;DHT22;32840;52.516;13.294;2024-01-30T09:20:53;6.90;99.90
47090;DHT22;32840;52.516;13.294;2024-01-30T09:23:38;6.90;99.90
47090;DHT22;32840;52.516;13.294;2024-01-30T09:26:23;6.90;99.90
47090;DHT22;32840;52.516;13.294;2024-01-30T09:29:08;6.90;99.90
47090;DHT22;32840;52.516;13.294;2024-01-30T09:31:54;7.00;99.90
47090;DHT22;32840;52.516;13.294;2024-01-30T09:34:39;7.00;99.90
47090;DHT22;32840;52.516;13.294;2024-01-30T09:37:24;7.00;99.90
47090;DHT22;32840;52.516;13.294;2024-01-30T09:40:09;7.10;99.90
47090;DHT22;32840;52.516;13.294;2024-01-30T09:42:55;7.10;99.90
47090;DHT22;32840;52.516;13.294;2024-01-30T09:45:41;7.10;99.90
47090;DHT22;32840;52.516;13.294;2024-01-30T09:48:27;7.10;99.90
47090;DHT22;32840;52.516;13.294;2024-01-30T09:51:14;7.10;99.90
47090;DHT22;32840;52.516;13.294;2024-01-30T09:53:59;7.20;99.90
47090;DHT22;32840;52.516;13.294;2024-01-30T09:56:44;7.30;99.90
47090;DHT22;32840;52.516;13.294;2024-01-30T09:59:29;7.30;99.90
47090;DHT22;32840;52.516;13.294;2024-01-30T10:02:14;7.30;99.90
47090;DHT22;32840;52.516;13.294;2024-01-30T10:05:00;7.40;99.90
47090;DHT22;32840;52.516;13.294;2024-01-30T10:07:55;7.40;99.90
47090;DHT22;32840;52.516;13.294;2024-01-30T10:10:41;7.50;99.90
47090;DHT22;32840;52.516;13.294;2024-01-30T10:13:26;7.60;99.90
47090;DHT22;32840;52.516;13.294;2024-01-30T10:16:14;7.60;99.80
47090;DHT22;32840;52.516;13.294;2024-01-30T10:18:58;7.60;99.40
47090;DHT22;32840;52.516;13.294;2024-01-30T10:21:43;7.60;98.90
47090;DHT22;32840;52.516;13.294;2024-01-30T10:24:28;7.60;98.80
47090;DHT22;32840;52.516;13.294;2024-01-30T10:27:16;7.60;98.60
47090;DHT22;32840;52.516;13.294;2024-01-30T10:30:01;7.60;98.40
47090;DHT22;32840;52.516;13.294;2024-01-30T10:32:46;7.60;98.50
47090;DHT22;32840;52.516;13.294;2024-01-30T10:35:31;7.70;98.30
47090;DHT22;32840;52.516;13.294;2024-01-30T10:38:24;7.70;98.00
47090;DHT22;32840;52.516;13.294;2024-01-30T10:41:11;7.70;98.20
47090;DHT22;32840;52.516;13.294;2024-01-30T10:44:05;7.80;97.50
47090;DHT22;32840;52.516;13.294;2024-01-30T10:46:59;7.80;97.50
47090;DHT22;32840;52.516;13.294;2024-01-30T10:49:45;7.90;97.20
47090;DHT22;32840;52.516;13.294;2024-01-30T10:52:32;7.80;97.00
47090;DHT22;32840;52.516;13.294;2024-01-30T10:55:18;7.90;96.80
47090;DHT22;32840;52.516;13.294;2024-01-30T10:58:03;7.90;96.70
47090;DHT22;32840;52.516;13.294;2024-01-30T11:00:49;8.00;96.50
47090;DHT22;32840;52.516;13.294;2024-01-30T11:03:35;8.00;96.00
47090;DHT22;32840;52.516;13.294;2024-01-30T11:06:25;8.00;96.00
47090;DHT22;32840;52.516;13.294;2024-01-30T11:09:13;8.10;95.90
47090;DHT22;32840;52.516;13.294;2024-01-30T11:12:02;8.10;95.70
47090;DHT22;32840;52.516;13.294;2024-01-30T11:14:48;8.20;95.90
47090;DHT22;32840;52.516;13.294;2024-01-30T11:20:31;8.30;95.60
47090;DHT22;32840;52.516;13.294;2024-01-30T11:23:16;8.30;95.10
47090;DHT22;32840;52.516;13.294;2024-01-30T11:26:01;8.30;94.60
47090;DHT22;32840;52.516;13.294;2024-01-30T11:28:52;8.30;95.50
47090;DHT22;32840;52.516;13.294;2024-01-30T11:31:37;8.30;94.70
47090;DHT22;32840;52.516;13.294;2024-01-30T11:34:22;8.40;94.50
47090;DHT22;32840;52.516;13.294;2024-01-30T11:37:10;8.40;95.00
47090;DHT22;32840;52.516;13.294;2024-01-30T11:39:56;8.40;94.60
47090;DHT22;32840;52.516;13.294;2024-01-30T11:42:43;8.50;94.80
47090;DHT22;32840;52.516;13.294;2024-01-30T11:45:28;8.60;94.10
47090;DHT22;32840;52.516;13.294;2024-01-30T11:48:13;8.60;93.90
47090;DHT22;32840;52.516;13.294;2024-01-30T11:50:58;8.60;93.70
47090;DHT22;32840;52.516;13.294;2024-01-30T11:53:43;8.70;93.70
47090;DHT22;32840;52.516;13.294;2024-01-30T11:56:28;8.70;93.30
47090;DHT22;32840;52.516;13.294;2024-01-30T11:59:13;8.80;93.10
47090;DHT22;32840;52.516;13.294;2024-01-30T12:01:58;8.80;93.50
47090;DHT22;32840;52.516;13.294;2024-01-30T12:04:44;8.90;93.80
47090;DHT22;32840;52.516;13.294;2024-01-30T12:07:28;9.00;93.00
47090;DHT22;32840;52.516;13.294;2024-01-30T12:10:14;9.00;93.30
47090;DHT22;32840;52.516;13.294;2024-01-30T12:13:00;9.00;93.00
47090;DHT22;32840;52.516;13.294;2024-01-30T12:15:46;9.00;93.20
47090;DHT22;32840;52.516;13.294;2024-01-30T12:18:30;9.10;93.60
47090;DHT22;32840;52.516;13.294;2024-01-30T12:21:18;9.20;92.90
47090;DHT22;32840;52.516;13.294;2024-01-30T12:24:04;9.20;92.60
47090;DHT22;32840;52.516;13.294;2024-01-30T12:26:49;9.10;92.40
47090;DHT22;32840;52.516;13.294;2024-01-30T12:29:34;9.20;92.70
47090;DHT22;32840;52.516;13.294;2024-01-30T12:32:19;9.10;92.60
47090;DHT22;32840;52.516;13.294;2024-01-30T12:35:07;9.20;92.50
47090;DHT22;32840;52.516;13.294;2024-01-30T12:37:52;9.10;92.70
47090;DHT22;32840;52.516;13.294;2024-01-30T12:40:37;9.10;92.60
47090;DHT22;32840;52.516;13.294;2024-01-30T12:43:23;9.10;92.60
47090;DHT22;32840;52.516;13.294;2024-01-30T12:46:09;9.20;92.80
47090;DHT22;32840;52.516;13.294;2024-01-30T12:48:54;9.20;92.70
47090;DHT22;32840;52.516;13.294;2024-01-30T12:51:39;9.10;92.80
47090;DHT22;32840;52.516;13.294;2024-01-30T12:54:24;9.10;92.70
47090;DHT22;32840;52.516;13.294;2024-01-30T12:57:09;9.20;93.00
47090;DHT22;32840;52.516;13.294;2024-01-30T12:59:54;9.20;92.90
47090;DHT22;32840;52.516;13.294;2024-01-30T13:02:39;9.20;93.10
47090;DHT22;32840;52.516;13.294;2024-01-30T13:05:27;9.20;93.20
47090;DHT22;32840;52.516;13.294;2024-01-30T13:08:11;9.20;93.30
47090;DHT22;32840;52.516;13.294;2024-01-30T13:10:56;9.20;93.10
47090;DHT22;32840;52.516;13.294;2024-01-30T13:13:41;9.10;93.10
47090;DHT22;32840;52.516;13.294;2024-01-30T13:16:27;9.10;93.40
47090;DHT22;32840;52.516;13.294;2024-01-30T13:19:12;9.20;93.50
47090;DHT22;32840;52.516;13.294;2024-01-30T13:21:56;9.10;93.70
47090;DHT22;32840;52.516;13.294;2024-01-30T13:24:41;9.20;93.60
47090;DHT22;32840;52.516;13.294;2024-01-30T13:27:26;9.10;93.80
47090;DHT22;32840;52.516;13.294;2024-01-30T13:30:11;9.20;94.00
47090;DHT22;32840;52.516;13.294;2024-01-30T13:32:56;9.20;94.00
47090;DHT22;32840;52.516;13.294;2024-01-30T13:35:41;9.20;94.00
47090;DHT22;32840;52.516;13.294;2024-01-30T13:38:27;9.20;94.00
47090;DHT22;32840;52.516;13.294;2024-01-30T13:41:12;9.30;94.10
47090;DHT22;32840;52.516;13.294;2024-01-30T13:43:57;9.40;94.00
47090;DHT22;32840;52.516;13.294;2024-01-30T13:46:42;9.40;94.00
47090;DHT22;32840;52.516;13.294;2024-01-30T13:49:27;9.40;94.00
47090;DHT22;32840;52.516;13.294;2024-01-30T13:52:13;9.40;94.00
47090;DHT22;32840;52.516;13.294;2024-01-30T13:54:57;9.40;94.10
47090;DHT22;32840;52.516;13.294;2024-01-30T13:57:42;9.40;94.10
47090;DHT22;32840;52.516;13.294;2024-01-30T14:00:27;9.50;94.30
47090;DHT22;32840;52.516;13.294;2024-01-30T14:03:12;9.50;94.30
47090;DHT22;32840;52.516;13.294;2024-01-30T14:05:58;9.40;94.40
47090;DHT22;32840;52.516;13.294;2024-01-30T14:08:43;9.40;94.80
47090;DHT22;32840;52.516;13.294;2024-01-30T14:11:28;9.50;94.70
47090;DHT22;32840;52.516;13.294;2024-01-30T14:14:13;9.50;94.90
47090;DHT22;32840;52.516;13.294;2024-01-30T14:16:58;9.50;94.90
47090;DHT22;32840;52.516;13.294;2024-01-30T14:19:44;9.40;94.90
47090;DHT22;32840;52.516;13.294;2024-01-30T14:22:29;9.40;95.10
47090;DHT22;32840;52.516;13.294;2024-01-30T14:25:14;9.50;95.20
47090;DHT22;32840;52.516;13.294;2024-01-30T14:27:59;9.50;95.20
47090;DHT22;32840;52.516;13.294;2024-01-30T14:30:44;9.50;95.20
47090;DHT22;32840;52.516;13.294;2024-01-30T14:33:28;9.50;95.30
47090;DHT22;32840;52.516;13.294;2024-01-30T14:36:13;9.50;95.30
47090;DHT22;32840;52.516;13.294;2024-01-30T14:38:58;9.60;95.30
47090;DHT22;32840;52.516;13.294;2024-01-30T14:41:43;9.60;95.30
47090;DHT22;32840;52.516;13.294;2024-01-30T14:44:29;9.50;95.40
47090;DHT22;32840;52.516;13.294;2024-01-30T14:47:15;9.50;95.60
47090;DHT22;32840;52.516;13.294;2024-01-30T14:50:00;9.50;95.70
47090;DHT22;32840;52.516;13.294;2024-01-30T14:52:45;9.50;95.90
47090;DHT22;32840;52.516;13.294;2024-01-30T14:55:30;9.50;96.00
47090;DHT22;32840;52.516;13.294;2024-01-30T14:58:15;9.50;96.10
47090;DHT22;32840;52.516;13.294;2024-01-30T15:01:00;9.40;96.20
47090;DHT22;32840;52.516;13.294;2024-01-30T15:03:45;9.40;96.40
47090;DHT22;32840;52.516;13.294;2024-01-30T15:06:30;9.40;96.70
47090;DHT22;32840;52.516;13.294;2024-01-30T15:09:15;9.40;96.70
47090;DHT22;32840;52.516;13.294;2024-01-30T15:12:01;9.40;96.80
47090;DHT22;32840;52.516;13.294;2024-01-30T15:14:45;9.40;97.00
47090;DHT22;32840;52.516;13.294;2024-01-30T15:17:40;9.40;97.00
47090;DHT22;32840;52.516;13.294;2024-01-30T15:20:25;9.30;97.20
47090;DHT22;32840;52.516;13.294;2024-01-30T15:23:10;9.30;97.40
47090;DHT22;32840;52.516;13.294;2024-01-30T15:25:55;9.30;97.60
47090;DHT22;32840;52.516;13.294;2024-01-30T15:28:40;9.30;97.70
47090;DHT22;32840;52.516;13.294;2024-01-30T15:31:25;9.30;97.70
47090;DHT22;32840;52.516;13.294;2024-01-30T15:34:10;9.30;97.80
47090;DHT22;32840;52.516;13.294;2024-01-30T15:36:54;9.30;97.90
47090;DHT22;32840;52.516;13.294;2024-01-30T15:39:39;9.30;98.00
47090;DHT22;32840;52.516;13.294;2024-01-30T15:42:24;9.30;98.20
47090;DHT22;32840;52.516;13.294;2024-01-30T15:45:09;9.30;98.30
47090;DHT22;32840;52.516;13.294;2024-01-30T15:47:55;9.30;98.40
47090;DHT22;32840;52.516;13.294;2024-01-30T15:50:39;9.30;98.60
47090;DHT22;32840;52.516;13.294;2024-01-30T15:53:26;9.30;98.70
47090;DHT22;32840;52.516;13.294;2024-01-30T15:56:11;9.20;98.90
47090;DHT22;32840;52.516;13.294;2024-01-30T15:58:56;9.20;99.10
47090;DHT22;32840;52.516;13.294;2024-01-30T16:01:41;9.20;99.20
47090;DHT22;32840;52.516;13.294;2024-01-30T16:04:26;9.20;99.30
47090;DHT22;32840;52.516;13.294;2024-01-30T16:07:11;9.20;99.40
47090;DHT22;32840;52.516;13.294;2024-01-30T16:09:56;9.10;99.70
47090;DHT22;32840;52.516;13.294;2024-01-30T16:12:41;9.20;99.80
47090;DHT22;32840;52.516;13.294;2024-01-30T16:15:29;9.10;99.90
47090;DHT22;32840;52.516;13.294;2024-01-30T16:18:14;9.10;99.90
47090;DHT22;32840;52.516;13.294;2024-01-30T16:20:59;9.10;99.90
47090;DHT22;32840;52.516;13.294;2024-01-30T16:23:44;9.00;99.90
47090;DHT22;32840;52.516;13.294;2024-01-30T16:26:30;9.00;99.90
47090;DHT22;32840;52.516;13.294;2024-01-30T16:29:14;9.00;99.90
47090;DHT22;32840;52.516;13.294;2024-01-30T16:31:59;9.00;99.90
47090;DHT22;32840;52.516;13.294;2024-01-30T16:34:44;9.10;99.90
47090;DHT22;32840;52.516;13.294;2024-01-30T16:37:29;9.10;99.90
47090;DHT22;32840;52.516;13.294;2024-01-30T16:40:14;9.10;99.90
47090;DHT22;32840;52.516;13.294;2024-01-30T16:42:59;9.10;99.90
47090;DHT22;32840;52.516;13.294;2024-01-30T16:45:45;9.10;99.90
47090;DHT22;32840;52.516;13.294;2024-01-30T16:48:29;9.10;99.90
47090;DHT22;32840;52.516;13.294;2024-01-30T16:51:14;9.10;99.90
47090;DHT22;32840;52.516;13.294;2024-01-30T16:54:00;9.10;99.90
47090;DHT22;32840;52.516;13.294;2024-01-30T16:56:45;9.00;99.90
47090;DHT22;32840;52.516;13.294;2024-01-30T16:59:32;9.00;99.90
47090;DHT22;32840;52.516;13.294;2024-01-30T17:02:17;9.10;99.90
47090;DHT22;32840;52.516;13.294;2024-01-30T17:05:02;9.10;99.90
47090;DHT22;32840;52.516;13.294;2024-01-30T17:07:47;9.10;99.90
47090;DHT22;32840;52.516;13.294;2024-01-30T17:10:32;9.10;99.90
47090;DHT22;32840;52.516;13.294;2024-01-30T17:13:17;9.10;99.90
47090;DHT22;32840;52.516;13.294;2024-01-30T17:16:02;9.10;99.90
47090;DHT22;32840;52.516;13.294;2024-01-30T17:18:47;9.10;99.90
47090;DHT22;32840;52.516;13.294;2024-01-30T17:21:32;9.10;99.90
47090;DHT22;32840;52.516;13.294;2024-01-30T17:24:18;9.10;99.90
47090;DHT22;32840;52.516;13.294;2024-01-30T17:27:04;9.00;99.90